sensor_id;sensor_type;location;lat;lon;timestamp;P1;durP1;ratioP1;P2;durP2;ratioP2
71969;SDS011;59838;52.152;5.436;2022-12-07T00:01:29;3.70;;;1.67;;
71969;SDS011;59838;52.152;5.436;2022-12-07T00:04:01;4.03;;;1.67;;
71969;SDS011;59838;52.152;5.436;2022-12-07T00:06:39;4.43;;;1.85;;
71969;SDS011;59838;52.152;5.436;2022-12-07T00:09:09;2.78;;;1.52;;
71969;SDS011;59838;52.152;5.436;2022-12-07T00:11:37;6.75;;;1.90;;
71969;SDS011;59838;52.152;5.436;2022-12-07T00:14:05;3.20;;;1.45;;
71969;SDS011;59838;52.152;5.436;2022-12-07T00:16:34;6.23;;;1.70;;
71969;SDS011;59838;52.152;5.436;2022-12-07T00:19:01;2.45;;;1.10;;
71969;SDS011;59838;52.152;5.436;2022-12-07T00:21:30;8.30;;;2.08;;
71969;SDS011;59838;52.152;5.436;2022-12-07T00:23:58;6.03;;;1.40;;
71969;SDS011;59838;52.152;5.436;2022-12-07T00:26:26;9.80;;;2.10;;
71969;SDS011;59838;52.152;5.436;2022-12-07T00:28:55;4.07;;;1.27;;
71969;SDS011;59838;52.152;5.436;2022-12-07T00:31:24;3.33;;;1.67;;
71969;SDS011;59838;52.152;5.436;2022-12-07T00:33:52;9.38;;;1.70;;
71969;SDS011;59838;52.152;5.436;2022-12-07T00:36:20;3.35;;;1.55;;
71969;SDS011;59838;52.152;5.436;2022-12-07T00:38:53;5.95;;;1.73;;
71969;SDS011;59838;52.152;5.436;2022-12-07T00:41:21;5.40;;;2.00;;
71969;SDS011;59838;52.152;5.436;2022-12-07T00:43:49;3.97;;;1.55;;
71969;SDS011;59838;52.152;5.436;2022-12-07T00:46:17;5.25;;;1.60;;
71969;SDS011;59838;52.152;5.436;2022-12-07T00:48:44;8.27;;;1.48;;
71969;SDS011;59838;52.152;5.436;2022-12-07T00:51:11;7.22;;;1.30;;
71969;SDS011;59838;52.152;5.436;2022-12-07T00:53:39;8.87;;;1.60;;
71969;SDS011;59838;52.152;5.436;2022-12-07T00:56:08;3.35;;;1.50;;
71969;SDS011;59838;52.152;5.436;2022-12-07T00:58:37;6.25;;;1.20;;
71969;SDS011;59838;52.152;5.436;2022-12-07T01:01:05;3.47;;;1.25;;
71969;SDS011;59838;52.152;5.436;2022-12-07T01:03:32;6.35;;;1.63;;
71969;SDS011;59838;52.152;5.436;2022-12-07T01:05:59;3.57;;;1.13;;
71969;SDS011;59838;52.152;5.436;2022-12-07T01:08:26;8.45;;;1.25;;
71969;SDS011;59838;52.152;5.436;2022-12-07T01:10:58;2.70;;;1.13;;
71969;SDS011;59838;52.152;5.436;2022-12-07T01:13:32;10.35;;;1.40;;
71969;SDS011;59838;52.152;5.436;2022-12-07T01:16:01;7.70;;;1.48;;
71969;SDS011;59838;52.152;5.436;2022-12-07T01:18:30;6.20;;;1.20;;
71969;SDS011;59838;52.152;5.436;2022-12-07T01:23:25;4.38;;;1.00;;
71969;SDS011;59838;52.152;5.436;2022-12-07T01:25:55;3.95;;;1.30;;
71969;SDS011;59838;52.152;5.436;2022-12-07T01:28:23;8.80;;;1.30;;
71969;SDS011;59838;52.152;5.436;2022-12-07T01:30:57;4.90;;;1.17;;
71969;SDS011;59838;52.152;5.436;2022-12-07T01:33:26;8.27;;;1.02;;
71969;SDS011;59838;52.152;5.436;2022-12-07T01:35:53;4.20;;;0.90;;
71969;SDS011;59838;52.152;5.436;2022-12-07T01:38:20;7.82;;;0.80;;
71969;SDS011;59838;52.152;5.436;2022-12-07T01:40:53;3.70;;;0.88;;
71969;SDS011;59838;52.152;5.436;2022-12-07T01:43:20;6.40;;;1.00;;
71969;SDS011;59838;52.152;5.436;2022-12-07T01:45:49;4.25;;;1.23;;
71969;SDS011;59838;52.152;5.436;2022-12-07T01:48:16;8.35;;;1.00;;
71969;SDS011;59838;52.152;5.436;2022-12-07T01:50:46;4.68;;;1.08;;
71969;SDS011;59838;52.152;5.436;2022-12-07T01:53:14;2.53;;;0.70;;
71969;SDS011;59838;52.152;5.436;2022-12-07T01:55:44;5.00;;;0.70;;
71969;SDS011;59838;52.152;5.436;2022-12-07T01:58:13;2.15;;;0.60;;
71969;SDS011;59838;52.152;5.436;2022-12-07T02:00:41;5.90;;;0.80;;
71969;SDS011;59838;52.152;5.436;2022-12-07T02:03:12;5.03;;;0.63;;
71969;SDS011;59838;52.152;5.436;2022-12-07T02:06:00;1.38;;;0.47;;
71969;SDS011;59838;52.152;5.436;2022-12-07T02:08:27;5.33;;;0.63;;
71969;SDS011;59838;52.152;5.436;2022-12-07T02:10:54;9.50;;;0.90;;
71969;SDS011;59838;52.152;5.436;2022-12-07T02:13:21;9.23;;;0.95;;
71969;SDS011;59838;52.152;5.436;2022-12-07T02:21:38;3.23;;;0.57;;
71969;SDS011;59838;52.152;5.436;2022-12-07T04:14:44;2.45;;;0.80;;
71969;SDS011;59838;52.152;5.436;2022-12-07T04:17:11;4.10;;;0.50;;
71969;SDS011;59838;52.152;5.436;2022-12-07T04:19:37;3.70;;;0.40;;
71969;SDS011;59838;52.152;5.436;2022-12-07T04:22:04;1.48;;;0.50;;
71969;SDS011;59838;52.152;5.436;2022-12-07T04:24:31;4.78;;;0.45;;
71969;SDS011;59838;52.152;5.436;2022-12-07T04:26:58;2.65;;;0.40;;
71969;SDS011;59838;52.152;5.436;2022-12-07T04:29:24;2.33;;;0.70;;
71969;SDS011;59838;52.152;5.436;2022-12-07T04:31:51;2.20;;;0.45;;
71969;SDS011;59838;52.152;5.436;2022-12-07T04:34:18;6.80;;;0.70;;
71969;SDS011;59838;52.152;5.436;2022-12-07T04:36:45;6.53;;;0.70;;
71969;SDS011;59838;52.152;5.436;2022-12-07T04:39:20;3.72;;;0.40;;
71969;SDS011;59838;52.152;5.436;2022-12-07T04:41:51;4.37;;;0.40;;
71969;SDS011;59838;52.152;5.436;2022-12-07T04:44:19;2.83;;;0.50;;
71969;SDS011;59838;52.152;5.436;2022-12-07T04:46:46;1.63;;;0.40;;
71969;SDS011;59838;52.152;5.436;2022-12-07T04:49:13;1.95;;;0.30;;
71969;SDS011;59838;52.152;5.436;2022-12-07T04:51:40;1.73;;;0.47;;
71969;SDS011;59838;52.152;5.436;2022-12-07T04:54:07;1.60;;;0.30;;
71969;SDS011;59838;52.152;5.436;2022-12-07T04:56:34;2.65;;;0.65;;
71969;SDS011;59838;52.152;5.436;2022-12-07T04:59:01;2.63;;;0.20;;
71969;SDS011;59838;52.152;5.436;2022-12-07T05:01:28;1.95;;;0.60;;
71969;SDS011;59838;52.152;5.436;2022-12-07T05:03:55;5.07;;;0.40;;
71969;SDS011;59838;52.152;5.436;2022-12-07T05:06:21;2.03;;;0.40;;
71969;SDS011;59838;52.152;5.436;2022-12-07T05:08:48;3.45;;;0.30;;
71969;SDS011;59838;52.152;5.436;2022-12-07T05:11:15;3.25;;;0.38;;
71969;SDS011;59838;52.152;5.436;2022-12-07T05:14:05;3.40;;;0.32;;
71969;SDS011;59838;52.152;5.436;2022-12-07T05:16:38;3.05;;;0.30;;
71969;SDS011;59838;52.152;5.436;2022-12-07T05:19:05;2.80;;;0.50;;
71969;SDS011;59838;52.152;5.436;2022-12-07T05:21:32;0.93;;;0.20;;
71969;SDS011;59838;52.152;5.436;2022-12-07T05:23:59;1.92;;;0.38;;
71969;SDS011;59838;52.152;5.436;2022-12-07T05:26:26;3.58;;;0.20;;
71969;SDS011;59838;52.152;5.436;2022-12-07T05:28:53;3.47;;;0.28;;
71969;SDS011;59838;52.152;5.436;2022-12-07T05:31:20;2.10;;;0.30;;
71969;SDS011;59838;52.152;5.436;2022-12-07T05:33:48;3.55;;;0.30;;
71969;SDS011;59838;52.152;5.436;2022-12-07T05:36:14;5.03;;;0.40;;
71969;SDS011;59838;52.152;5.436;2022-12-07T05:38:41;1.92;;;0.22;;
71969;SDS011;59838;52.152;5.436;2022-12-07T05:41:08;2.83;;;0.70;;
71969;SDS011;59838;52.152;5.436;2022-12-07T05:43:58;3.50;;;0.13;;
71969;SDS011;59838;52.152;5.436;2022-12-07T05:46:24;2.10;;;0.20;;
71969;SDS011;59838;52.152;5.436;2022-12-07T05:48:51;4.40;;;0.50;;
71969;SDS011;59838;52.152;5.436;2022-12-07T05:51:17;2.92;;;0.25;;
71969;SDS011;59838;52.152;5.436;2022-12-07T05:53:45;1.60;;;0.20;;
71969;SDS011;59838;52.152;5.436;2022-12-07T05:56:11;5.67;;;0.50;;
71969;SDS011;59838;52.152;5.436;2022-12-07T05:58:38;3.95;;;0.38;;
71969;SDS011;59838;52.152;5.436;2022-12-07T06:01:23;4.78;;;0.40;;
71969;SDS011;59838;52.152;5.436;2022-12-07T06:03:49;4.50;;;0.25;;
71969;SDS011;59838;52.152;5.436;2022-12-07T06:06:16;2.33;;;0.20;;
71969;SDS011;59838;52.152;5.436;2022-12-07T06:08:42;5.33;;;0.37;;
71969;SDS011;59838;52.152;5.436;2022-12-07T06:11:09;3.72;;;0.50;;
71969;SDS011;59838;52.152;5.436;2022-12-07T06:13:54;1.85;;;0.40;;
71969;SDS011;59838;52.152;5.436;2022-12-07T06:16:20;4.40;;;0.30;;
71969;SDS011;59838;52.152;5.436;2022-12-07T06:18:46;4.70;;;0.60;;
71969;SDS011;59838;52.152;5.436;2022-12-07T06:21:13;0.90;;;0.30;;
71969;SDS011;59838;52.152;5.436;2022-12-07T06:23:40;4.25;;;0.30;;
71969;SDS011;59838;52.152;5.436;2022-12-07T06:26:06;3.53;;;0.28;;
71969;SDS011;59838;52.152;5.436;2022-12-07T06:28:33;3.67;;;0.20;;
71969;SDS011;59838;52.152;5.436;2022-12-07T06:31:02;2.65;;;0.40;;
71969;SDS011;59838;52.152;5.436;2022-12-07T06:33:33;4.37;;;0.67;;
71969;SDS011;59838;52.152;5.436;2022-12-07T06:35:59;5.47;;;0.30;;
71969;SDS011;59838;52.152;5.436;2022-12-07T06:38:26;3.72;;;0.50;;
71969;SDS011;59838;52.152;5.436;2022-12-07T06:40:52;5.65;;;0.20;;
71969;SDS011;59838;52.152;5.436;2022-12-07T06:43:19;2.47;;;0.40;;
71969;SDS011;59838;52.152;5.436;2022-12-07T06:45:45;1.50;;;0.23;;
71969;SDS011;59838;52.152;5.436;2022-12-07T06:48:12;5.10;;;0.60;;
71969;SDS011;59838;52.152;5.436;2022-12-07T06:50:38;3.33;;;0.30;;
71969;SDS011;59838;52.152;5.436;2022-12-07T06:53:04;2.85;;;0.20;;
71969;SDS011;59838;52.152;5.436;2022-12-07T06:55:31;4.80;;;0.50;;
71969;SDS011;59838;52.152;5.436;2022-12-07T06:57:57;4.43;;;0.40;;
71969;SDS011;59838;52.152;5.436;2022-12-07T07:00:24;3.88;;;0.30;;
71969;SDS011;59838;52.152;5.436;2022-12-07T07:02:50;3.47;;;0.60;;
71969;SDS011;59838;52.152;5.436;2022-12-07T07:05:18;3.45;;;0.35;;
71969;SDS011;59838;52.152;5.436;2022-12-07T07:07:44;3.70;;;0.45;;
71969;SDS011;59838;52.152;5.436;2022-12-07T07:10:31;2.37;;;0.27;;
71969;SDS011;59838;52.152;5.436;2022-12-07T07:12:57;4.63;;;0.68;;
71969;SDS011;59838;52.152;5.436;2022-12-07T07:15:24;2.03;;;0.40;;
71969;SDS011;59838;52.152;5.436;2022-12-07T07:17:50;4.93;;;0.70;;
71969;SDS011;59838;52.152;5.436;2022-12-07T07:20:17;3.50;;;0.25;;
71969;SDS011;59838;52.152;5.436;2022-12-07T07:22:43;2.10;;;0.20;;
71969;SDS011;59838;52.152;5.436;2022-12-07T07:25:10;5.90;;;0.70;;
71969;SDS011;59838;52.152;5.436;2022-12-07T07:27:36;3.85;;;0.30;;
71969;SDS011;59838;52.152;5.436;2022-12-07T07:30:03;8.13;;;0.60;;
71969;SDS011;59838;52.152;5.436;2022-12-07T07:32:31;2.95;;;0.40;;
71969;SDS011;59838;52.152;5.436;2022-12-07T07:34:58;5.10;;;0.80;;
71969;SDS011;59838;52.152;5.436;2022-12-07T07:37:25;3.60;;;0.40;;
71969;SDS011;59838;52.152;5.436;2022-12-07T07:39:52;3.85;;;0.57;;
71969;SDS011;59838;52.152;5.436;2022-12-07T07:42:18;4.97;;;0.47;;
71969;SDS011;59838;52.152;5.436;2022-12-07T07:44:45;6.50;;;1.00;;
71969;SDS011;59838;52.152;5.436;2022-12-07T07:47:11;2.50;;;0.40;;
71969;SDS011;59838;52.152;5.436;2022-12-07T07:49:38;6.13;;;0.60;;
71969;SDS011;59838;52.152;5.436;2022-12-07T07:52:12;5.75;;;0.35;;
71969;SDS011;59838;52.152;5.436;2022-12-07T07:54:39;1.65;;;0.38;;
71969;SDS011;59838;52.152;5.436;2022-12-07T07:57:05;5.03;;;0.43;;
71969;SDS011;59838;52.152;5.436;2022-12-07T07:59:31;2.43;;;0.47;;
71969;SDS011;59838;52.152;5.436;2022-12-07T08:01:58;2.03;;;0.88;;
71969;SDS011;59838;52.152;5.436;2022-12-07T08:04:24;1.65;;;0.30;;
71969;SDS011;59838;52.152;5.436;2022-12-07T08:06:52;5.03;;;0.52;;
71969;SDS011;59838;52.152;5.436;2022-12-07T08:09:18;4.22;;;0.55;;
71969;SDS011;59838;52.152;5.436;2022-12-07T08:11:45;7.50;;;0.50;;
71969;SDS011;59838;52.152;5.436;2022-12-07T08:14:11;13.55;;;0.50;;
71969;SDS011;59838;52.152;5.436;2022-12-07T08:16:38;4.00;;;0.80;;
71969;SDS011;59838;52.152;5.436;2022-12-07T08:19:04;2.10;;;0.88;;
71969;SDS011;59838;52.152;5.436;2022-12-07T08:21:31;5.95;;;0.60;;
71969;SDS011;59838;52.152;5.436;2022-12-07T08:23:58;2.47;;;1.23;;
71969;SDS011;59838;52.152;5.436;2022-12-07T08:26:25;6.10;;;0.60;;
71969;SDS011;59838;52.152;5.436;2022-12-07T08:28:52;4.18;;;0.50;;
71969;SDS011;59838;52.152;5.436;2022-12-07T08:31:19;5.18;;;0.50;;
71969;SDS011;59838;52.152;5.436;2022-12-07T08:33:46;4.57;;;0.60;;
71969;SDS011;59838;52.152;5.436;2022-12-07T08:36:14;4.57;;;0.50;;
71969;SDS011;59838;52.152;5.436;2022-12-07T08:38:41;3.25;;;0.35;;
71969;SDS011;59838;52.152;5.436;2022-12-07T08:41:28;1.33;;;0.50;;
71969;SDS011;59838;52.152;5.436;2022-12-07T08:43:54;6.75;;;1.20;;
71969;SDS011;59838;52.152;5.436;2022-12-07T08:49:14;4.53;;;0.60;;
71969;SDS011;59838;52.152;5.436;2022-12-07T08:51:44;5.93;;;0.88;;
71969;SDS011;59838;52.152;5.436;2022-12-07T08:54:13;1.27;;;0.30;;
71969;SDS011;59838;52.152;5.436;2022-12-07T08:56:43;10.55;;;0.60;;
71969;SDS011;59838;52.152;5.436;2022-12-07T08:59:10;2.25;;;0.45;;
71969;SDS011;59838;52.152;5.436;2022-12-07T09:01:39;4.13;;;0.50;;
71969;SDS011;59838;52.152;5.436;2022-12-07T09:04:05;4.18;;;0.38;;
71969;SDS011;59838;52.152;5.436;2022-12-07T09:06:31;3.92;;;0.50;;
71969;SDS011;59838;52.152;5.436;2022-12-07T09:08:59;5.78;;;0.57;;
71969;SDS011;59838;52.152;5.436;2022-12-07T09:11:27;5.38;;;0.82;;
71969;SDS011;59838;52.152;5.436;2022-12-07T09:13:54;7.13;;;0.87;;
71969;SDS011;59838;52.152;5.436;2022-12-07T09:16:21;3.90;;;0.30;;
71969;SDS011;59838;52.152;5.436;2022-12-07T09:18:47;2.60;;;0.30;;
71969;SDS011;59838;52.152;5.436;2022-12-07T09:21:14;2.45;;;0.32;;
71969;SDS011;59838;52.152;5.436;2022-12-07T09:23:43;3.40;;;0.60;;
71969;SDS011;59838;52.152;5.436;2022-12-07T09:26:10;3.93;;;0.60;;
71969;SDS011;59838;52.152;5.436;2022-12-07T09:28:36;4.03;;;0.30;;
71969;SDS011;59838;52.152;5.436;2022-12-07T09:31:04;6.97;;;0.73;;
71969;SDS011;59838;52.152;5.436;2022-12-07T09:33:56;2.50;;;0.40;;
71969;SDS011;59838;52.152;5.436;2022-12-07T09:36:24;4.03;;;0.70;;
71969;SDS011;59838;52.152;5.436;2022-12-07T09:38:51;1.67;;;0.20;;
71969;SDS011;59838;52.152;5.436;2022-12-07T09:41:17;3.15;;;0.40;;
71969;SDS011;59838;52.152;5.436;2022-12-07T09:43:45;3.15;;;0.60;;
71969;SDS011;59838;52.152;5.436;2022-12-07T09:46:13;2.90;;;0.32;;
71969;SDS011;59838;52.152;5.436;2022-12-07T09:48:42;3.70;;;0.63;;
71969;SDS011;59838;52.152;5.436;2022-12-07T09:51:17;1.57;;;0.20;;
71969;SDS011;59838;52.152;5.436;2022-12-07T09:53:50;2.75;;;0.43;;
71969;SDS011;59838;52.152;5.436;2022-12-07T09:56:18;2.97;;;0.30;;
71969;SDS011;59838;52.152;5.436;2022-12-07T09:58:46;3.15;;;0.50;;
71969;SDS011;59838;52.152;5.436;2022-12-07T10:01:14;3.28;;;0.85;;
71969;SDS011;59838;52.152;5.436;2022-12-07T10:03:50;3.47;;;0.43;;
71969;SDS011;59838;52.152;5.436;2022-12-07T10:06:19;3.67;;;0.57;;
71969;SDS011;59838;52.152;5.436;2022-12-07T10:08:46;3.80;;;0.60;;
71969;SDS011;59838;52.152;5.436;2022-12-07T10:11:12;4.60;;;0.30;;
71969;SDS011;59838;52.152;5.436;2022-12-07T10:13:42;2.28;;;0.30;;
71969;SDS011;59838;52.152;5.436;2022-12-07T10:18:50;1.27;;;0.20;;
71969;SDS011;59838;52.152;5.436;2022-12-07T10:21:18;2.15;;;0.30;;
71969;SDS011;59838;52.152;5.436;2022-12-07T10:31:44;2.92;;;0.20;;
71969;SDS011;59838;52.152;5.436;2022-12-07T10:34:22;3.53;;;0.30;;
71969;SDS011;59838;52.152;5.436;2022-12-07T10:37:17;2.92;;;0.30;;
71969;SDS011;59838;52.152;5.436;2022-12-07T10:39:52;1.42;;;0.30;;
71969;SDS011;59838;52.152;5.436;2022-12-07T10:42:24;4.77;;;0.47;;
71969;SDS011;59838;52.152;5.436;2022-12-07T10:45:08;4.13;;;0.30;;
71969;SDS011;59838;52.152;5.436;2022-12-07T10:47:36;2.45;;;0.30;;
71969;SDS011;59838;52.152;5.436;2022-12-07T10:50:23;1.67;;;0.60;;
71969;SDS011;59838;52.152;5.436;2022-12-07T10:53:18;3.28;;;0.75;;
71969;SDS011;59838;52.152;5.436;2022-12-07T10:55:56;1.10;;;0.30;;
71969;SDS011;59838;52.152;5.436;2022-12-07T10:58:59;4.15;;;0.32;;
71969;SDS011;59838;52.152;5.436;2022-12-07T11:04:37;2.80;;;0.38;;
71969;SDS011;59838;52.152;5.436;2022-12-07T11:11:05;3.87;;;0.70;;
71969;SDS011;59838;52.152;5.436;2022-12-07T11:19:17;4.03;;;0.40;;
71969;SDS011;59838;52.152;5.436;2022-12-07T11:22:14;3.30;;;0.52;;
71969;SDS011;59838;52.152;5.436;2022-12-07T11:27:39;6.80;;;0.30;;
71969;SDS011;59838;52.152;5.436;2022-12-07T11:33:08;2.53;;;0.47;;
71969;SDS011;59838;52.152;5.436;2022-12-07T11:35:56;3.95;;;0.50;;
71969;SDS011;59838;52.152;5.436;2022-12-07T11:38:52;2.20;;;0.40;;
71969;SDS011;59838;52.152;5.436;2022-12-07T11:41:25;4.80;;;1.83;;
71969;SDS011;59838;52.152;5.436;2022-12-07T11:46:58;2.65;;;0.77;;
71969;SDS011;59838;52.152;5.436;2022-12-07T11:49:47;5.60;;;0.57;;
71969;SDS011;59838;52.152;5.436;2022-12-07T11:52:22;5.03;;;0.30;;
71969;SDS011;59838;52.152;5.436;2022-12-07T11:54:54;3.20;;;0.35;;
71969;SDS011;59838;52.152;5.436;2022-12-07T11:57:41;3.85;;;0.50;;
71969;SDS011;59838;52.152;5.436;2022-12-07T12:00:12;6.22;;;0.50;;
71969;SDS011;59838;52.152;5.436;2022-12-07T12:03:15;8.90;;;0.75;;
71969;SDS011;59838;52.152;5.436;2022-12-07T12:05:41;5.73;;;0.53;;
71969;SDS011;59838;52.152;5.436;2022-12-07T12:17:10;2.17;;;0.50;;
71969;SDS011;59838;52.152;5.436;2022-12-07T12:20:00;3.47;;;0.40;;
71969;SDS011;59838;52.152;5.436;2022-12-07T12:22:43;3.88;;;0.43;;
71969;SDS011;59838;52.152;5.436;2022-12-07T12:25:21;3.15;;;0.70;;
71969;SDS011;59838;52.152;5.436;2022-12-07T12:27:51;6.22;;;0.50;;
71969;SDS011;59838;52.152;5.436;2022-12-07T12:30:37;4.65;;;0.40;;
71969;SDS011;59838;52.152;5.436;2022-12-07T12:33:13;1.13;;;0.30;;
71969;SDS011;59838;52.152;5.436;2022-12-07T12:35:46;4.05;;;0.68;;
71969;SDS011;59838;52.152;5.436;2022-12-07T12:40:53;3.13;;;0.30;;
71969;SDS011;59838;52.152;5.436;2022-12-07T12:51:52;6.75;;;0.60;;
71969;SDS011;59838;52.152;5.436;2022-12-07T12:54:29;4.35;;;0.50;;
71969;SDS011;59838;52.152;5.436;2022-12-07T13:20:51;1.85;;;0.20;;
71969;SDS011;59838;52.152;5.436;2022-12-07T13:31:50;1.30;;;0.35;;
71969;SDS011;59838;52.152;5.436;2022-12-07T13:34:29;27.77;;;3.03;;
71969;SDS011;59838;52.152;5.436;2022-12-07T13:37:23;12.25;;;1.00;;
71969;SDS011;59838;52.152;5.436;2022-12-07T13:40:15;1.60;;;0.30;;
71969;SDS011;59838;52.152;5.436;2022-12-07T13:42:44;0.73;;;0.10;;
71969;SDS011;59838;52.152;5.436;2022-12-07T13:45:19;0.82;;;0.25;;
71969;SDS011;59838;52.152;5.436;2022-12-07T13:48:11;1.80;;;0.10;;
71969;SDS011;59838;52.152;5.436;2022-12-07T13:50:48;2.55;;;0.10;;
71969;SDS011;59838;52.152;5.436;2022-12-07T13:53:19;1.13;;;0.20;;
71969;SDS011;59838;52.152;5.436;2022-12-07T13:55:46;0.40;;;0.20;;
71969;SDS011;59838;52.152;5.436;2022-12-07T13:58:19;1.30;;;0.25;;
71969;SDS011;59838;52.152;5.436;2022-12-07T14:00:46;2.22;;;0.20;;
71969;SDS011;59838;52.152;5.436;2022-12-07T14:05:39;1.80;;;0.20;;
71969;SDS011;59838;52.152;5.436;2022-12-07T14:10:41;1.60;;;0.50;;
71969;SDS011;59838;52.152;5.436;2022-12-07T14:13:31;1.63;;;0.30;;
71969;SDS011;59838;52.152;5.436;2022-12-07T14:16:03;6.18;;;0.50;;
71969;SDS011;59838;52.152;5.436;2022-12-07T14:18:38;7.07;;;0.50;;
71969;SDS011;59838;52.152;5.436;2022-12-07T14:23:36;1.38;;;0.40;;
71969;SDS011;59838;52.152;5.436;2022-12-07T14:26:09;1.70;;;0.20;;
71969;SDS011;59838;52.152;5.436;2022-12-07T14:28:39;2.65;;;0.30;;
71969;SDS011;59838;52.152;5.436;2022-12-07T14:31:11;1.87;;;0.20;;
71969;SDS011;59838;52.152;5.436;2022-12-07T14:33:49;1.58;;;0.30;;
71969;SDS011;59838;52.152;5.436;2022-12-07T14:36:15;2.58;;;0.30;;
71969;SDS011;59838;52.152;5.436;2022-12-07T14:38:42;2.25;;;0.40;;
71969;SDS011;59838;52.152;5.436;2022-12-07T14:41:12;1.25;;;0.20;;
71969;SDS011;59838;52.152;5.436;2022-12-07T14:44:04;0.80;;;0.50;;
71969;SDS011;59838;52.152;5.436;2022-12-07T14:46:57;1.15;;;0.30;;
71969;SDS011;59838;52.152;5.436;2022-12-07T14:49:43;1.65;;;0.30;;
71969;SDS011;59838;52.152;5.436;2022-12-07T14:52:20;1.77;;;0.40;;
71969;SDS011;59838;52.152;5.436;2022-12-07T14:55:12;2.35;;;0.45;;
71969;SDS011;59838;52.152;5.436;2022-12-07T14:57:42;3.43;;;0.50;;
71969;SDS011;59838;52.152;5.436;2022-12-07T15:00:12;2.92;;;0.45;;
71969;SDS011;59838;52.152;5.436;2022-12-07T15:02:40;5.00;;;0.45;;
71969;SDS011;59838;52.152;5.436;2022-12-07T15:05:06;3.28;;;0.30;;
71969;SDS011;59838;52.152;5.436;2022-12-07T15:07:40;1.95;;;0.35;;
71969;SDS011;59838;52.152;5.436;2022-12-07T15:10:15;1.50;;;0.20;;
71969;SDS011;59838;52.152;5.436;2022-12-07T15:12:49;7.97;;;0.40;;
71969;SDS011;59838;52.152;5.436;2022-12-07T15:15:16;2.22;;;0.73;;
71969;SDS011;59838;52.152;5.436;2022-12-07T15:17:43;3.60;;;0.60;;
71969;SDS011;59838;52.152;5.436;2022-12-07T15:20:13;3.00;;;0.28;;
71969;SDS011;59838;52.152;5.436;2022-12-07T15:22:42;2.07;;;0.23;;
71969;SDS011;59838;52.152;5.436;2022-12-07T15:25:12;2.40;;;0.20;;
71969;SDS011;59838;52.152;5.436;2022-12-07T15:27:39;6.82;;;0.38;;
71969;SDS011;59838;52.152;5.436;2022-12-07T15:30:06;1.27;;;0.28;;
71969;SDS011;59838;52.152;5.436;2022-12-07T15:32:33;0.50;;;0.15;;
71969;SDS011;59838;52.152;5.436;2022-12-07T15:34:59;0.63;;;0.30;;
71969;SDS011;59838;52.152;5.436;2022-12-07T15:37:26;2.72;;;0.35;;
71969;SDS011;59838;52.152;5.436;2022-12-07T15:39:53;4.38;;;0.30;;
71969;SDS011;59838;52.152;5.436;2022-12-07T15:42:19;2.45;;;0.30;;
71969;SDS011;59838;52.152;5.436;2022-12-07T15:44:46;1.77;;;0.35;;
71969;SDS011;59838;52.152;5.436;2022-12-07T15:47:33;2.20;;;0.50;;
71969;SDS011;59838;52.152;5.436;2022-12-07T15:50:22;1.08;;;0.47;;
71969;SDS011;59838;52.152;5.436;2022-12-07T15:52:49;3.47;;;0.32;;
71969;SDS011;59838;52.152;5.436;2022-12-07T15:55:15;4.05;;;0.40;;
71969;SDS011;59838;52.152;5.436;2022-12-07T15:57:42;1.67;;;0.20;;
71969;SDS011;59838;52.152;5.436;2022-12-07T16:00:08;2.20;;;0.30;;
71969;SDS011;59838;52.152;5.436;2022-12-07T16:02:36;4.32;;;0.70;;
71969;SDS011;59838;52.152;5.436;2022-12-07T16:05:05;3.40;;;0.68;;
71969;SDS011;59838;52.152;5.436;2022-12-07T16:07:32;3.13;;;0.50;;
71969;SDS011;59838;52.152;5.436;2022-12-07T16:09:58;2.42;;;0.55;;
71969;SDS011;59838;52.152;5.436;2022-12-07T16:12:24;3.13;;;0.47;;
71969;SDS011;59838;52.152;5.436;2022-12-07T16:14:51;2.30;;;0.80;;
71969;SDS011;59838;52.152;5.436;2022-12-07T16:17:17;1.88;;;0.55;;
71969;SDS011;59838;52.152;5.436;2022-12-07T16:19:44;2.58;;;0.60;;
71969;SDS011;59838;52.152;5.436;2022-12-07T16:22:10;1.52;;;0.50;;
71969;SDS011;59838;52.152;5.436;2022-12-07T16:24:36;4.80;;;0.80;;
71969;SDS011;59838;52.152;5.436;2022-12-07T16:27:03;5.68;;;0.70;;
71969;SDS011;59838;52.152;5.436;2022-12-07T16:29:29;3.25;;;1.00;;
71969;SDS011;59838;52.152;5.436;2022-12-07T16:31:55;3.30;;;0.90;;
71969;SDS011;59838;52.152;5.436;2022-12-07T16:34:22;3.80;;;0.73;;
71969;SDS011;59838;52.152;5.436;2022-12-07T16:36:48;6.60;;;1.40;;
71969;SDS011;59838;52.152;5.436;2022-12-07T16:39:32;2.42;;;1.00;;
71969;SDS011;59838;52.152;5.436;2022-12-07T16:41:59;4.32;;;0.55;;
71969;SDS011;59838;52.152;5.436;2022-12-07T16:44:25;5.30;;;0.50;;
71969;SDS011;59838;52.152;5.436;2022-12-07T16:46:52;4.35;;;0.70;;
71969;SDS011;59838;52.152;5.436;2022-12-07T16:49:19;2.90;;;0.93;;
71969;SDS011;59838;52.152;5.436;2022-12-07T16:51:45;6.50;;;0.70;;
71969;SDS011;59838;52.152;5.436;2022-12-07T16:54:35;2.85;;;0.73;;
71969;SDS011;59838;52.152;5.436;2022-12-07T16:57:02;3.35;;;0.65;;
71969;SDS011;59838;52.152;5.436;2022-12-07T16:59:29;4.35;;;1.15;;
71969;SDS011;59838;52.152;5.436;2022-12-07T17:01:55;1.53;;;0.60;;
71969;SDS011;59838;52.152;5.436;2022-12-07T17:04:21;4.00;;;0.90;;
71969;SDS011;59838;52.152;5.436;2022-12-07T17:06:48;1.98;;;0.75;;
71969;SDS011;59838;52.152;5.436;2022-12-07T17:09:14;3.97;;;0.65;;
71969;SDS011;59838;52.152;5.436;2022-12-07T17:11:46;2.95;;;0.85;;
71969;SDS011;59838;52.152;5.436;2022-12-07T17:14:13;1.40;;;0.50;;
71969;SDS011;59838;52.152;5.436;2022-12-07T17:16:59;2.75;;;0.55;;
71969;SDS011;59838;52.152;5.436;2022-12-07T17:19:28;3.67;;;0.80;;
71969;SDS011;59838;52.152;5.436;2022-12-07T17:21:54;3.83;;;0.68;;
71969;SDS011;59838;52.152;5.436;2022-12-07T17:24:21;2.70;;;0.82;;
71969;SDS011;59838;52.152;5.436;2022-12-07T17:26:47;7.43;;;0.60;;
71969;SDS011;59838;52.152;5.436;2022-12-07T17:29:14;5.70;;;0.82;;
71969;SDS011;59838;52.152;5.436;2022-12-07T17:31:43;5.05;;;1.00;;
71969;SDS011;59838;52.152;5.436;2022-12-07T17:34:16;5.95;;;1.05;;
71969;SDS011;59838;52.152;5.436;2022-12-07T17:36:43;2.42;;;1.15;;
71969;SDS011;59838;52.152;5.436;2022-12-07T17:39:12;6.03;;;1.10;;
71969;SDS011;59838;52.152;5.436;2022-12-07T17:41:41;2.65;;;0.80;;
71969;SDS011;59838;52.152;5.436;2022-12-07T17:44:26;4.97;;;0.93;;
71969;SDS011;59838;52.152;5.436;2022-12-07T17:46:53;4.63;;;0.75;;
71969;SDS011;59838;52.152;5.436;2022-12-07T17:49:20;6.80;;;0.70;;
71969;SDS011;59838;52.152;5.436;2022-12-07T17:51:47;3.50;;;0.50;;
71969;SDS011;59838;52.152;5.436;2022-12-07T17:54:32;6.25;;;0.70;;
71969;SDS011;59838;52.152;5.436;2022-12-07T17:56:58;3.05;;;0.60;;
71969;SDS011;59838;52.152;5.436;2022-12-07T17:59:25;2.65;;;0.40;;
71969;SDS011;59838;52.152;5.436;2022-12-07T18:01:51;0.70;;;0.30;;
71969;SDS011;59838;52.152;5.436;2022-12-07T18:04:18;2.60;;;0.63;;
71969;SDS011;59838;52.152;5.436;2022-12-07T18:06:45;0.98;;;0.22;;
71969;SDS011;59838;52.152;5.436;2022-12-07T18:09:17;0.77;;;0.22;;
71969;SDS011;59838;52.152;5.436;2022-12-07T18:11:44;0.93;;;0.40;;
71969;SDS011;59838;52.152;5.436;2022-12-07T18:14:11;2.17;;;0.30;;
71969;SDS011;59838;52.152;5.436;2022-12-07T18:16:37;0.93;;;0.20;;
71969;SDS011;59838;52.152;5.436;2022-12-07T18:19:04;4.40;;;1.08;;
71969;SDS011;59838;52.152;5.436;2022-12-07T18:21:32;1.52;;;0.43;;
71969;SDS011;59838;52.152;5.436;2022-12-07T18:23:59;2.47;;;0.30;;
71969;SDS011;59838;52.152;5.436;2022-12-07T18:26:28;1.35;;;0.28;;
71969;SDS011;59838;52.152;5.436;2022-12-07T18:29:00;0.93;;;0.20;;
71969;SDS011;59838;52.152;5.436;2022-12-07T18:31:27;3.83;;;0.50;;
71969;SDS011;59838;52.152;5.436;2022-12-07T18:33:54;3.40;;;0.55;;
71969;SDS011;59838;52.152;5.436;2022-12-07T18:36:22;5.97;;;0.50;;
71969;SDS011;59838;52.152;5.436;2022-12-07T18:38:49;2.15;;;0.50;;
71969;SDS011;59838;52.152;5.436;2022-12-07T18:41:15;3.37;;;0.47;;